Paxton, Illinois
Current Conditions -  °F | °C
As of 5:10 AM on Tuesday 21 Oct 2014 (Local Time) from KTIP Reporting Station
Overcast Overcast  
Wind Chill: 46°   Ceiling: 5000
Heat Index: 48°   Visibility: 7mi
Dew Point: 46°   Wind: 6mph
Humidity: 90%   Direction: 320°NW
Pressure: 30.06"   Gusts: NA
Location:  40.46°N, 88.1°W
Report Text: KTIP 211010Z AUTO 32005KT 7SM OVC050 09/08 A3006 RMK AO2 T00900075
Loading
Personal Weather Stations






























Interactive Weather Map
Tropical Storm Tracking
New forecast layout! Learn more

10-Day Weather Forecast

Advertisements
Track Severe Weather on mobile